This is the latest recevied weather packets stored in our database for station/object KD7CIH. If no packets are shown the sender has not sent any weather packets the latest 10 day(s).
| Time | Temp. | Humidity | Pressure | Rain* | Wind** | Luminosity | Snow |
|---|---|---|---|---|---|---|---|
| 1787616845 | 21.67° C | 35% | 1021 hPa | 0 mm | - | - | - |
| 1787616673 | 21.67° C | 36% | 1021.2 hPa | 0 mm | - | - | - |
| 1787616246 | 22.22° C | 34% | 1021.2 hPa | 0 mm | - | - | - |
| 1787616073 | 22.78° C | 34% | 1021.1 hPa | 0 mm | - | - | - |
| 1787615645 | 23.89° C | 30% | 1020.9 hPa | 0 mm | - | - | - |
| 1787615346 | 24.44° C | 29% | 1020.7 hPa | 0 mm | - | - | - |
| 1787615174 | 24.44° C | 29% | 1020.4 hPa | 0 mm | - | - | - |
| 1787614747 | 24.44° C | 32% | 1020.2 hPa | 0 mm | - | - | - |
| 1787614445 | 25.56° C | 26% | 1020.1 hPa | 0 mm | - | - | - |
| 1787614145 | 25.56° C | 24% | 1019.5 hPa | 0 mm | - | - | - |
| 1787613973 | 26.11° C | 24% | 1019.4 hPa | 0 mm | - | - | - |
| 1787613546 | 26.11° C | 24% | 1019.2 hPa | 0 mm | - | - | - |
| 1787613242 | 26.11° C | 24% | 1019 hPa | 0 mm | - | - | - |
| 1787612937 | 25.56° C | 23% | 1018.9 hPa | 0 mm | - | - | - |
| 1787612630 | 26.11° C | 23% | 1018.9 hPa | 0 mm | - | - | - |
| 1787612577 | 26.11° C | 24% | 1018.7 hPa | 0 mm | - | - | - |
| 1787612153 | 25.56° C | 24% | 1018.7 hPa | 0 mm | - | - | - |
| 1787611850 | 25.56° C | 24% | 1018.8 hPa | 0 mm | - | - | - |
| 1787611425 | 25.56° C | 24% | 1018.8 hPa | 0 mm | - | - | - |
| 1787611120 | 25.56° C | 24% | 1019 hPa | 0 mm | - | - | - |
| 1787610820 | 25.56° C | 24% | 1019 hPa | 0 mm | - | - | - |
| 1787610518 | 26.11° C | 23% | 1019 hPa | 0 mm | - | - | - |
| 1787610220 | 26.67° C | 23% | 1018.9 hPa | 0 mm | - | - | - |
| 1787609918 | 26.11° C | 24% | 1018.9 hPa | 0 mm | - | - | - |
| 1787609618 | 26.67° C | 24% | 1019.2 hPa | 0 mm | - | - | - |
* Rain latest hour (hover to see other rain measurements)
** Current wind speed in m/s (hover to see current wind gust speed)